Time;durP1;ratioP1;P1;durP2;ratioP2;P2;SDS_P1;SDS_P2;PMS_P1;PMS_P2;Temp;Humidity;BMP_temperature;BMP_pressure;BME280_temperature;BME280_humidity;BME280_pressure;Samples;Min_cycle;Max_cycle;Signal;HPM_P1;HPM_P2
2022/08/07 00:00:14;;;;;;;2.13;2.00;;;;;;;;;;5079481;28;24415;-46
2022/08/07 00:02:39;;;;;;;2.07;1.90;;;;;;;;;;5078034;28;24434;-46
2022/08/07 00:05:04;;;;;;;2.00;1.77;;;;;;;;;;5077677;28;24413;-46
2022/08/07 00:07:29;;;;;;;1.70;1.60;;;;;;;;;;5082463;28;25037;-46
2022/08/07 00:09:54;;;;;;;2.08;1.75;;;;;;;;;;5082198;28;24848;-46
2022/08/07 00:12:20;;;;;;;2.00;1.90;;;;;;;;;;5071152;28;25064;-45
2022/08/07 00:14:45;;;;;;;2.00;1.90;;;;;;;;;;5067585;28;24390;-46
2022/08/07 00:17:10;;;;;;;1.70;1.60;;;;;;;;;;5082270;28;24971;-46
2022/08/07 00:19:35;;;;;;;2.33;2.13;;;;;;;;;;5086855;28;25236;-45
2022/08/07 00:22:00;;;;;;;2.10;2.00;;;;;;;;;;5083792;28;24475;-45
2022/08/07 00:24:25;;;;;;;2.10;2.00;;;;;;;;;;5084555;28;24986;-45
2022/08/07 00:26:51;;;;;;;2.22;1.70;;;;;;;;;;5072794;28;24502;-45
2022/08/07 00:29:17;;;;;;;2.00;1.90;;;;;;;;;;5086557;28;24469;-45
2022/08/07 00:31:43;;;;;;;1.80;1.60;;;;;;;;;;5069685;28;24484;-45
2022/08/07 00:34:08;;;;;;;2.08;1.98;;;;;;;;;;5085214;28;24499;-45
2022/08/07 00:36:33;;;;;;;2.23;2.00;;;;;;;;;;5080864;28;24424;-47
2022/08/07 00:38:58;;;;;;;1.90;1.70;;;;;;;;;;5088246;28;24395;-45
2022/08/07 00:41:24;;;;;;;2.00;1.90;;;;;;;;;;5081581;28;24422;-45
2022/08/07 00:43:49;;;;;;;2.30;2.10;;;;;;;;;;5075837;28;24528;-46
2022/08/07 00:46:14;;;;;;;2.00;1.90;;;;;;;;;;5076774;28;24419;-45
2022/08/07 00:48:40;;;;;;;1.90;1.80;;;;;;;;;;5086857;28;24848;-44
2022/08/07 00:51:05;;;;;;;2.00;1.90;;;;;;;;;;5081007;28;24517;-45
2022/08/07 00:53:30;;;;;;;2.40;2.20;;;;;;;;;;5083452;28;24606;-45
2022/08/07 00:55:55;;;;;;;2.10;2.00;;;;;;;;;;5080378;28;24471;-45
2022/08/07 00:58:21;;;;;;;2.30;2.10;;;;;;;;;;5070306;28;24488;-45
2022/08/07 01:00:46;;;;;;;2.58;2.10;;;;;;;;;;5073307;28;24438;-44
2022/08/07 01:03:11;;;;;;;2.40;2.20;;;;;;;;;;5072850;28;24430;-45
2022/08/07 01:05:37;;;;;;;2.40;2.20;;;;;;;;;;5083901;28;24475;-45
2022/08/07 01:08:02;;;;;;;2.20;2.00;;;;;;;;;;5085168;28;24418;-44
2022/08/07 01:10:28;;;;;;;2.00;1.90;;;;;;;;;;5083864;28;24830;-46
2022/08/07 01:12:53;;;;;;;1.80;1.70;;;;;;;;;;5079128;28;24443;-45
2022/08/07 01:15:19;;;;;;;1.90;1.80;;;;;;;;;;5086334;28;24448;-45
2022/08/07 01:17:44;;;;;;;1.70;1.60;;;;;;;;;;5086163;28;24902;-48
2022/08/07 01:20:11;;;;;;;2.00;1.90;;;;;;;;;;5072033;28;24417;-46
2022/08/07 01:22:37;;;;;;;1.90;1.80;;;;;;;;;;5078901;28;24422;-52
2022/08/07 01:25:03;;;;;;;1.90;1.70;;;;;;;;;;5070700;28;24471;-44
2022/08/07 01:27:28;;;;;;;1.55;1.45;;;;;;;;;;5076615;28;24797;-45
2022/08/07 01:29:53;;;;;;;1.70;1.60;;;;;;;;;;5070890;28;24423;-45
2022/08/07 01:32:18;;;;;;;1.70;1.60;;;;;;;;;;5081659;28;24432;-43
2022/08/07 01:34:44;;;;;;;1.50;1.40;;;;;;;;;;5079218;28;24984;-44
2022/08/07 01:37:11;;;;;;;1.60;1.50;;;;;;;;;;5086906;28;24401;-45
2022/08/07 01:39:36;;;;;;;1.50;1.40;;;;;;;;;;5075496;28;24429;-45
2022/08/07 01:42:01;;;;;;;2.17;1.50;;;;;;;;;;5085354;28;24854;-45
2022/08/07 01:44:26;;;;;;;1.80;1.70;;;;;;;;;;5077223;28;24484;-46
2022/08/07 01:46:52;;;;;;;1.70;1.52;;;;;;;;;;5076349;28;24440;-46
2022/08/07 01:49:17;;;;;;;1.67;1.57;;;;;;;;;;5075041;28;24418;-46
2022/08/07 01:51:44;;;;;;;1.63;1.52;;;;;;;;;;5071066;28;24855;-45
2022/08/07 01:54:12;;;;;;;2.00;1.80;;;;;;;;;;5067632;28;24454;-45
2022/08/07 01:56:55;;;;;;;1.60;1.50;;;;;;;;;;5081645;28;24471;-45
2022/08/07 01:59:28;;;;;;;1.75;1.65;;;;;;;;;;5073889;28;24995;-46
2022/08/07 02:01:56;;;;;;;1.70;1.60;;;;;;;;;;5084635;28;24437;-45
2022/08/07 02:04:25;;;;;;;1.60;1.50;;;;;;;;;;5073685;28;24840;-45
2022/08/07 02:06:50;;;;;;;2.10;2.00;;;;;;;;;;5073816;28;24545;-45
2022/08/07 02:09:17;;;;;;;1.50;1.40;;;;;;;;;;5066793;28;24927;-44
2022/08/07 02:11:43;;;;;;;1.80;1.70;;;;;;;;;;5072808;28;24425;-44
2022/08/07 02:14:09;;;;;;;1.60;1.50;;;;;;;;;;5072652;28;24530;-45
2022/08/07 02:16:36;;;;;;;1.98;1.88;;;;;;;;;;5082229;28;24839;-45
2022/08/07 02:19:02;;;;;;;2.10;1.90;;;;;;;;;;5084936;28;24499;-45
2022/08/07 02:21:27;;;;;;;1.90;1.80;;;;;;;;;;5084048;28;24977;-45
2022/08/07 02:23:53;;;;;;;1.80;1.70;;;;;;;;;;5075797;28;25205;-45
2022/08/07 02:26:19;;;;;;;1.90;1.80;;;;;;;;;;5083663;28;24786;-46
2022/08/07 02:28:44;;;;;;;1.60;1.50;;;;;;;;;;5079889;28;24770;-45
2022/08/07 02:31:10;;;;;;;2.20;2.00;;;;;;;;;;5073156;28;24438;-45
2022/08/07 02:33:36;;;;;;;1.90;1.80;;;;;;;;;;5080688;28;24449;-44
2022/08/07 02:36:02;;;;;;;1.92;1.83;;;;;;;;;;5074953;28;24427;-43
2022/08/07 02:38:28;;;;;;;1.80;1.70;;;;;;;;;;5069103;28;24413;-44
2022/08/07 02:40:54;;;;;;;1.83;1.73;;;;;;;;;;5079061;28;24422;-45
2022/08/07 02:43:19;;;;;;;1.67;1.58;;;;;;;;;;5079398;28;24418;-44
2022/08/07 02:45:46;;;;;;;2.00;1.90;;;;;;;;;;5087726;28;25061;-46
2022/08/07 02:48:11;;;;;;;1.85;1.75;;;;;;;;;;5085543;28;24473;-45
2022/08/07 02:50:40;;;;;;;1.80;1.70;;;;;;;;;;5072076;28;24469;-46
2022/08/07 02:53:06;;;;;;;1.70;1.60;;;;;;;;;;5082486;28;25360;-44
2022/08/07 02:55:34;;;;;;;2.00;1.90;;;;;;;;;;5084142;28;24450;-46
2022/08/07 02:58:02;;;;;;;1.70;1.60;;;;;;;;;;5085182;28;24418;-46
2022/08/07 03:00:27;;;;;;;1.70;1.60;;;;;;;;;;5085785;28;24444;-45
2022/08/07 03:02:52;;;;;;;1.70;1.60;;;;;;;;;;5081457;28;24451;-45
2022/08/07 03:05:18;;;;;;;1.80;1.70;;;;;;;;;;5075411;28;24469;-46
2022/08/07 03:07:43;;;;;;;1.40;1.30;;;;;;;;;;5073005;28;24441;-46
2022/08/07 03:10:09;;;;;;;1.70;1.50;;;;;;;;;;5080376;28;24466;-45
2022/08/07 03:12:34;;;;;;;1.77;1.67;;;;;;;;;;5068616;28;24430;-45
2022/08/07 03:15:00;;;;;;;1.70;1.60;;;;;;;;;;5071251;28;25031;-46
2022/08/07 03:17:25;;;;;;;1.80;1.70;;;;;;;;;;5081978;28;24824;-46
2022/08/07 03:19:50;;;;;;;2.00;1.70;;;;;;;;;;5080599;28;25242;-45
2022/08/07 03:22:17;;;;;;;1.80;1.70;;;;;;;;;;5079335;28;24923;-45
2022/08/07 03:24:43;;;;;;;2.05;1.95;;;;;;;;;;5085286;28;24450;-45
2022/08/07 03:27:08;;;;;;;1.73;1.63;;;;;;;;;;5077545;28;24449;-45
2022/08/07 03:29:38;;;;;;;1.90;1.80;;;;;;;;;;5081152;28;24429;-46
2022/08/07 03:32:05;;;;;;;1.80;1.70;;;;;;;;;;5083588;28;24537;-45
2022/08/07 03:34:31;;;;;;;1.90;1.80;;;;;;;;;;5080318;28;24471;-45
2022/08/07 03:36:58;;;;;;;1.60;1.50;;;;;;;;;;5085804;28;24430;-46
2022/08/07 03:39:24;;;;;;;1.80;1.70;;;;;;;;;;5088365;28;24397;-46
2022/08/07 03:41:49;;;;;;;1.65;1.55;;;;;;;;;;5075387;28;24471;-46
2022/08/07 03:44:15;;;;;;;1.77;1.67;;;;;;;;;;5087695;28;24517;-46
2022/08/07 03:46:41;;;;;;;1.60;1.50;;;;;;;;;;5075752;28;24432;-46
2022/08/07 03:49:07;;;;;;;1.80;1.70;;;;;;;;;;5080612;28;24460;-45
2022/08/07 03:51:33;;;;;;;1.90;1.80;;;;;;;;;;5085960;28;24480;-44
2022/08/07 03:53:58;;;;;;;1.90;1.80;;;;;;;;;;5087756;28;24472;-44
2022/08/07 03:56:24;;;;;;;2.03;1.93;;;;;;;;;;5077615;28;24928;-46
2022/08/07 03:58:49;;;;;;;1.80;1.70;;;;;;;;;;5077865;28;24474;-45
2022/08/07 04:01:15;;;;;;;1.80;1.70;;;;;;;;;;5077118;28;24504;-44
2022/08/07 04:03:40;;;;;;;1.95;1.80;;;;;;;;;;5077238;28;24442;-46
2022/08/07 04:06:09;;;;;;;1.70;1.60;;;;;;;;;;5080272;28;24979;-45
2022/08/07 04:08:34;;;;;;;1.80;1.70;;;;;;;;;;5086609;28;24433;-45
2022/08/07 04:10:59;;;;;;;2.30;1.90;;;;;;;;;;5086346;28;24643;-45
2022/08/07 04:13:25;;;;;;;2.00;1.90;;;;;;;;;;5077558;28;24521;-44
2022/08/07 04:15:50;;;;;;;1.90;1.80;;;;;;;;;;5077053;28;24418;-45
2022/08/07 04:18:16;;;;;;;1.70;1.60;;;;;;;;;;5070770;28;24426;-44
2022/08/07 04:20:41;;;;;;;1.90;1.80;;;;;;;;;;5081679;28;24844;-44
2022/08/07 04:23:07;;;;;;;1.97;1.87;;;;;;;;;;5086601;28;24458;-45
2022/08/07 04:25:34;;;;;;;1.90;1.80;;;;;;;;;;5072089;28;24453;-45
2022/08/07 04:27:59;;;;;;;1.57;1.47;;;;;;;;;;5078574;28;24958;-45
2022/08/07 04:30:24;;;;;;;2.10;1.77;;;;;;;;;;5085187;28;24506;-45
2022/08/07 04:32:50;;;;;;;1.70;1.60;;;;;;;;;;5066691;28;24438;-46
2022/08/07 04:35:15;;;;;;;1.80;1.70;;;;;;;;;;5075540;28;24441;-46
2022/08/07 04:37:40;;;;;;;2.10;2.00;;;;;;;;;;5078125;28;24425;-45
2022/08/07 04:40:06;;;;;;;1.80;1.70;;;;;;;;;;5076660;28;24570;-46
2022/08/07 04:42:33;;;;;;;1.60;1.50;;;;;;;;;;5084456;28;25101;-45
2022/08/07 04:45:00;;;;;;;1.50;1.40;;;;;;;;;;5081891;28;24414;-46
2022/08/07 04:47:25;;;;;;;1.65;1.55;;;;;;;;;;5070997;28;24481;-45
2022/08/07 04:50:10;;;;;;;1.60;1.50;;;;;;;;;;5077922;28;24452;-45
2022/08/07 04:52:45;;;;;;;1.50;1.40;;;;;;;;;;5082132;28;24483;-45
2022/08/07 04:55:10;;;;;;;1.60;1.50;;;;;;;;;;5084138;28;25027;-46
2022/08/07 04:57:45;;;;;;;1.60;1.50;;;;;;;;;;5083058;28;24406;-46
2022/08/07 05:00:11;;;;;;;1.70;1.60;;;;;;;;;;5087829;28;24520;-46
2022/08/07 05:02:47;;;;;;;1.90;1.80;;;;;;;;;;5082966;28;24430;-46
2022/08/07 05:05:30;;;;;;;1.30;1.30;;;;;;;;;;5082734;28;24425;-45
2022/08/07 05:07:58;;;;;;;1.48;1.38;;;;;;;;;;5080734;28;24430;-46
2022/08/07 05:10:33;;;;;;;1.70;1.60;;;;;;;;;;5068935;28;24429;-46
2022/08/07 05:13:02;;;;;;;1.40;1.30;;;;;;;;;;5080111;28;24510;-45
2022/08/07 05:15:34;;;;;;;1.50;1.40;;;;;;;;;;5072769;28;25201;-45
2022/08/07 05:18:05;;;;;;;1.30;1.20;;;;;;;;;;5067488;28;24916;-45
2022/08/07 05:20:38;;;;;;;1.50;1.40;;;;;;;;;;5080621;28;24419;-45
2022/08/07 05:23:08;;;;;;;1.40;1.30;;;;;;;;;;5080040;28;24525;-45
2022/08/07 05:25:33;;;;;;;1.50;1.40;;;;;;;;;;5079097;28;24418;-45
2022/08/07 05:28:00;;;;;;;1.40;1.30;;;;;;;;;;5082608;28;25027;-45
2022/08/07 05:30:25;;;;;;;1.65;1.50;;;;;;;;;;5080793;28;25269;-46
2022/08/07 05:32:51;;;;;;;1.40;1.30;;;;;;;;;;5079189;28;24434;-64
2022/08/07 05:35:18;;;;;;;1.50;1.40;;;;;;;;;;5074489;28;24995;-45
2022/08/07 05:37:44;;;;;;;1.70;1.60;;;;;;;;;;5077830;28;24448;-45
2022/08/07 05:40:10;;;;;;;1.50;1.40;;;;;;;;;;5087439;28;24386;-45
2022/08/07 05:42:36;;;;;;;1.30;1.20;;;;;;;;;;5087325;28;24422;-45
2022/08/07 05:45:03;;;;;;;1.30;1.20;;;;;;;;;;5087609;28;24386;-46
2022/08/07 05:47:28;;;;;;;1.40;1.30;;;;;;;;;;5086528;28;24418;-44
2022/08/07 05:49:54;;;;;;;1.60;1.50;;;;;;;;;;5086366;28;24458;-44
2022/08/07 05:52:20;;;;;;;1.50;1.30;;;;;;;;;;5067838;28;25142;-44
2022/08/07 05:54:45;;;;;;;1.40;1.30;;;;;;;;;;5073698;28;24437;-46
2022/08/07 05:57:11;;;;;;;1.60;1.40;;;;;;;;;;5071304;28;25279;-44
2022/08/07 05:59:37;;;;;;;1.90;1.40;;;;;;;;;;5081664;28;24434;-45
2022/08/07 06:02:04;;;;;;;1.90;1.70;;;;;;;;;;5074755;28;24427;-45
2022/08/07 06:04:30;;;;;;;1.60;1.50;;;;;;;;;;5086573;28;24928;-45
2022/08/07 06:06:56;;;;;;;1.50;1.40;;;;;;;;;;5078612;28;24443;-45
2022/08/07 06:09:22;;;;;;;2.20;2.00;;;;;;;;;;5076966;28;24784;-46
2022/08/07 06:11:47;;;;;;;1.50;1.40;;;;;;;;;;5083714;28;24402;-45
2022/08/07 06:14:12;;;;;;;1.75;1.65;;;;;;;;;;5081275;28;24974;-46
2022/08/07 06:16:38;;;;;;;1.80;1.50;;;;;;;;;;5074554;28;24431;-46
2022/08/07 06:19:03;;;;;;;1.70;1.60;;;;;;;;;;5071038;28;24426;-45
2022/08/07 06:21:29;;;;;;;1.70;1.60;;;;;;;;;;5079980;28;24418;-45
2022/08/07 06:23:54;;;;;;;2.03;1.92;;;;;;;;;;5076739;28;24529;-45
2022/08/07 06:26:20;;;;;;;2.20;1.87;;;;;;;;;;5077782;28;24406;-45
2022/08/07 06:28:49;;;;;;;2.00;1.80;;;;;;;;;;5081350;28;24441;-45
2022/08/07 06:31:14;;;;;;;1.88;1.77;;;;;;;;;;5085189;28;24426;-46
2022/08/07 06:33:40;;;;;;;2.60;1.70;;;;;;;;;;5067237;28;24433;-45
2022/08/07 06:36:05;;;;;;;1.63;1.53;;;;;;;;;;5077492;28;24430;-44
2022/08/07 06:38:30;;;;;;;1.77;1.67;;;;;;;;;;5065807;28;24431;-45
2022/08/07 06:40:56;;;;;;;2.17;1.30;;;;;;;;;;5075295;28;24448;-45
2022/08/07 06:43:22;;;;;;;1.50;1.40;;;;;;;;;;5069079;28;24501;-46
2022/08/07 06:45:47;;;;;;;1.60;1.50;;;;;;;;;;5065929;28;24411;-46
2022/08/07 06:48:12;;;;;;;2.03;1.93;;;;;;;;;;5073093;28;24442;-46
2022/08/07 06:50:38;;;;;;;1.60;1.50;;;;;;;;;;5079385;28;24426;-46
2022/08/07 06:53:05;;;;;;;1.60;1.50;;;;;;;;;;5071258;28;24454;-45
2022/08/07 06:55:31;;;;;;;1.42;1.30;;;;;;;;;;5068575;28;24458;-45
2022/08/07 06:57:58;;;;;;;1.50;1.40;;;;;;;;;;5087593;28;24421;-45
2022/08/07 07:00:23;;;;;;;2.05;1.35;;;;;;;;;;5082326;28;24422;-45
2022/08/07 07:02:49;;;;;;;1.50;1.40;;;;;;;;;;5065808;28;24848;-46
2022/08/07 07:05:15;;;;;;;1.67;1.58;;;;;;;;;;5074745;28;24437;-45
2022/08/07 07:07:43;;;;;;;1.70;1.40;;;;;;;;;;5075275;28;24418;-45
2022/08/07 07:10:09;;;;;;;1.50;1.40;;;;;;;;;;5067472;28;24986;-45
2022/08/07 07:12:39;;;;;;;2.00;1.70;;;;;;;;;;5078045;28;24411;-45
2022/08/07 07:15:13;;;;;;;1.90;1.70;;;;;;;;;;5082272;28;24426;-45
2022/08/07 07:17:38;;;;;;;1.70;1.60;;;;;;;;;;5082728;28;24996;-44
2022/08/07 07:20:12;;;;;;;2.40;1.90;;;;;;;;;;5075426;28;24518;-45
2022/08/07 07:22:37;;;;;;;1.80;1.70;;;;;;;;;;5068450;28;24423;-46
2022/08/07 07:25:04;;;;;;;1.80;1.70;;;;;;;;;;5069740;28;24429;-46
2022/08/07 07:27:31;;;;;;;1.80;1.70;;;;;;;;;;5080613;28;25019;-46
2022/08/07 07:29:58;;;;;;;1.90;1.60;;;;;;;;;;5089426;28;24680;-45
2022/08/07 07:32:24;;;;;;;1.50;1.40;;;;;;;;;;5089427;28;24948;-46
2022/08/07 07:34:51;;;;;;;1.67;1.50;;;;;;;;;;5089371;28;24432;-45
2022/08/07 07:37:16;;;;;;;1.98;1.88;;;;;;;;;;5089620;28;25198;-44
2022/08/07 07:39:43;;;;;;;1.90;1.70;;;;;;;;;;5089246;28;24943;-43
2022/08/07 07:42:10;;;;;;;1.90;1.60;;;;;;;;;;5089470;28;24840;-45
2022/08/07 07:44:38;;;;;;;2.50;1.60;;;;;;;;;;5088563;28;24409;-45
2022/08/07 07:47:04;;;;;;;2.35;2.15;;;;;;;;;;5089133;28;24461;-45
2022/08/07 07:49:30;;;;;;;1.80;1.70;;;;;;;;;;5089272;28;24430;-44
2022/08/07 07:51:55;;;;;;;1.70;1.60;;;;;;;;;;5089092;28;24394;-45
2022/08/07 07:54:21;;;;;;;3.17;2.00;;;;;;;;;;5088891;28;24892;-46
2022/08/07 07:56:48;;;;;;;2.40;2.20;;;;;;;;;;5088995;28;24398;-45
2022/08/07 07:59:14;;;;;;;1.83;1.73;;;;;;;;;;5089314;28;24382;-45
2022/08/07 08:01:42;;;;;;;2.67;1.90;;;;;;;;;;5088835;28;24470;-45
2022/08/07 08:04:07;;;;;;;1.90;1.80;;;;;;;;;;5087082;28;24397;-46
2022/08/07 08:06:33;;;;;;;2.80;1.70;;;;;;;;;;5089035;28;24466;-46
2022/08/07 08:08:59;;;;;;;3.10;2.00;;;;;;;;;;5088845;28;24459;-45
2022/08/07 08:11:24;;;;;;;1.93;1.47;;;;;;;;;;5088999;28;24406;-46
2022/08/07 08:13:49;;;;;;;1.70;1.60;;;;;;;;;;5088254;28;24426;-46
2022/08/07 08:16:17;;;;;;;2.30;2.10;;;;;;;;;;5088883;28;24414;-45
2022/08/07 08:18:43;;;;;;;2.00;1.80;;;;;;;;;;5088377;28;24428;-45
2022/08/07 08:27:03;;;;;;;2.42;1.50;;;;;;;;;;5088658;28;24398;-46
2022/08/07 08:29:26;;;;;;;2.10;1.40;;;;;;;;;;5088859;28;24390;-46
2022/08/07 08:31:51;;;;;;;1.50;1.40;;;;;;;;;;5088659;28;24386;-45
2022/08/07 08:34:17;;;;;;;1.80;1.50;;;;;;;;;;5086621;28;24432;-45
2022/08/07 08:36:43;;;;;;;1.52;1.17;;;;;;;;;;5088662;28;24456;-46
2022/08/07 08:39:09;;;;;;;1.43;1.20;;;;;;;;;;5087758;28;24917;-46
2022/08/07 08:41:45;;;;;;;1.30;1.00;;;;;;;;;;5088886;28;24492;-46
2022/08/07 08:44:10;;;;;;;1.60;1.00;;;;;;;;;;5088285;28;24456;-46
2022/08/07 08:46:36;;;;;;;1.50;1.30;;;;;;;;;;5088337;28;24450;-46
2022/08/07 08:49:05;;;;;;;1.30;1.20;;;;;;;;;;5087991;28;24459;-45
2022/08/07 08:51:34;;;;;;;1.90;1.20;;;;;;;;;;5088170;28;24495;-45
2022/08/07 08:54:08;;;;;;;1.92;1.20;;;;;;;;;;5085747;28;24533;-45
2022/08/07 08:56:39;;;;;;;1.50;1.10;;;;;;;;;;5087950;28;25019;-44
2022/08/07 08:59:08;;;;;;;1.20;1.00;;;;;;;;;;5087998;28;24417;-45
2022/08/07 09:01:42;;;;;;;1.23;1.13;;;;;;;;;;5087847;28;24501;-44
2022/08/07 09:04:10;;;;;;;1.05;0.95;;;;;;;;;;5087809;28;24928;-45
2022/08/07 09:06:43;;;;;;;1.30;1.20;;;;;;;;;;5088210;28;24459;-45
2022/08/07 09:09:15;;;;;;;1.50;1.10;;;;;;;;;;5087732;28;24482;-45
2022/08/07 09:11:44;;;;;;;1.70;1.20;;;;;;;;;;5087676;28;24409;-45
2022/08/07 09:14:15;;;;;;;1.20;1.00;;;;;;;;;;5087046;28;24426;-45
2022/08/07 09:16:47;;;;;;;1.30;1.20;;;;;;;;;;5087236;28;24589;-45
2022/08/07 09:19:23;;;;;;;1.20;1.10;;;;;;;;;;5087831;28;24445;-45
2022/08/07 09:22:01;;;;;;;1.48;1.10;;;;;;;;;;5087246;28;24382;-45
2022/08/07 09:24:35;;;;;;;0.95;0.95;;;;;;;;;;5084795;28;24414;-45
2022/08/07 09:27:23;;;;;;;1.20;1.10;;;;;;;;;;5087173;28;24539;-45
2022/08/07 09:29:48;;;;;;;1.10;1.00;;;;;;;;;;5087205;28;24393;-45
2022/08/07 09:32:23;;;;;;;1.20;1.08;;;;;;;;;;5087299;28;24427;-45
2022/08/07 09:34:57;;;;;;;1.00;0.90;;;;;;;;;;5087334;28;24406;-45
2022/08/07 09:37:25;;;;;;;1.08;1.08;;;;;;;;;;5087087;28;25207;-46
2022/08/07 09:39:57;;;;;;;1.13;0.90;;;;;;;;;;5087576;28;24485;-44
2022/08/07 09:42:46;;;;;;;1.10;1.00;;;;;;;;;;5087100;28;24404;-44
2022/08/07 09:45:14;;;;;;;1.10;1.00;;;;;;;;;;5081955;28;24936;-45
2022/08/07 09:47:45;;;;;;;1.10;1.00;;;;;;;;;;5086791;28;24408;-46
2022/08/07 09:50:29;;;;;;;1.30;0.90;;;;;;;;;;5087013;28;24391;-44
2022/08/07 09:52:59;;;;;;;1.15;1.00;;;;;;;;;;5086836;28;24433;-46
2022/08/07 09:55:44;;;;;;;1.30;1.20;;;;;;;;;;5086866;28;24737;-45
2022/08/07 09:58:18;;;;;;;1.55;1.10;;;;;;;;;;5075288;28;24471;-45
2022/08/07 10:00:52;;;;;;;1.10;1.00;;;;;;;;;;5087053;28;24845;-45
2022/08/07 10:03:29;;;;;;;1.50;1.20;;;;;;;;;;5087333;28;24439;-45
2022/08/07 10:06:13;;;;;;;0.90;0.90;;;;;;;;;;5084541;28;25094;-45
2022/08/07 10:08:57;;;;;;;1.17;0.90;;;;;;;;;;5085595;28;25309;-44
2022/08/07 10:11:37;;;;;;;1.27;1.08;;;;;;;;;;5087151;28;24482;-44
2022/08/07 10:14:05;;;;;;;1.10;1.00;;;;;;;;;;5086472;28;24483;-43
2022/08/07 10:16:40;;;;;;;1.35;0.90;;;;;;;;;;5087042;28;24926;-45
2022/08/07 10:19:05;;;;;;;2.70;1.10;;;;;;;;;;5087154;28;24469;-46
2022/08/07 10:21:34;;;;;;;1.00;1.00;;;;;;;;;;5087065;28;24565;-45
2022/08/07 10:24:18;;;;;;;1.70;0.93;;;;;;;;;;5086254;28;24405;-44
2022/08/07 10:26:52;;;;;;;1.13;1.00;;;;;;;;;;5086576;28;24405;-44
2022/08/07 10:29:32;;;;;;;0.93;0.93;;;;;;;;;;5086836;28;24434;-44
2022/08/07 10:32:06;;;;;;;1.00;1.00;;;;;;;;;;5087063;28;24501;-45
2022/08/07 10:34:36;;;;;;;1.20;1.00;;;;;;;;;;5086705;28;24995;-46
2022/08/07 10:37:12;;;;;;;1.10;1.00;;;;;;;;;;5086241;28;24978;-45
2022/08/07 10:39:56;;;;;;;1.10;1.02;;;;;;;;;;5086502;28;24893;-45
2022/08/07 10:42:29;;;;;;;1.20;1.10;;;;;;;;;;5086621;28;24402;-45
2022/08/07 10:45:13;;;;;;;1.40;1.00;;;;;;;;;;5084501;28;24406;-45
2022/08/07 10:47:49;;;;;;;2.50;1.07;;;;;;;;;;5084313;28;24950;-45
2022/08/07 10:50:23;;;;;;;0.90;0.90;;;;;;;;;;5086498;28;24916;-45
2022/08/07 10:52:54;;;;;;;1.10;1.00;;;;;;;;;;5086212;28;24390;-45
2022/08/07 10:55:22;;;;;;;1.05;1.00;;;;;;;;;;5086462;28;24677;-45
2022/08/07 10:58:06;;;;;;;0.80;0.80;;;;;;;;;;5086466;28;24394;-46
2022/08/07 11:00:35;;;;;;;1.20;1.10;;;;;;;;;;5085982;28;25380;-46
2022/08/07 11:03:13;;;;;;;1.60;1.20;;;;;;;;;;5087834;28;24459;-46
2022/08/07 11:05:47;;;;;;;1.20;1.00;;;;;;;;;;5089880;28;24417;-46
2022/08/07 11:08:22;;;;;;;1.20;1.10;;;;;;;;;;5090424;28;24497;-45
2022/08/07 11:10:50;;;;;;;1.90;1.20;;;;;;;;;;5089701;28;24451;-46
2022/08/07 11:13:31;;;;;;;1.08;0.98;;;;;;;;;;5089920;28;24430;-46
2022/08/07 11:16:01;;;;;;;0.90;0.80;;;;;;;;;;5089206;28;24451;-46
2022/08/07 11:18:29;;;;;;;1.50;0.90;;;;;;;;;;5090119;28;24448;-45
2022/08/07 11:20:54;;;;;;;1.27;1.10;;;;;;;;;;5089652;28;24956;-46
2022/08/07 11:23:22;;;;;;;1.00;1.00;;;;;;;;;;5089277;28;24995;-45
2022/08/07 11:26:04;;;;;;;0.90;0.90;;;;;;;;;;5089417;28;24475;-45
2022/08/07 11:28:34;;;;;;;1.30;1.00;;;;;;;;;;5069436;28;24808;-45
2022/08/07 11:31:09;;;;;;;1.20;1.10;;;;;;;;;;5068933;28;24414;-45
2022/08/07 11:33:49;;;;;;;1.35;0.90;;;;;;;;;;5069333;28;24434;-45
2022/08/07 11:36:33;;;;;;;1.20;1.10;;;;;;;;;;5069325;28;24391;-45
2022/08/07 11:39:13;;;;;;;1.30;1.20;;;;;;;;;;5069029;28;24433;-45
2022/08/07 11:41:43;;;;;;;2.33;1.17;;;;;;;;;;5068997;28;25195;-45
2022/08/07 11:44:23;;;;;;;1.30;1.10;;;;;;;;;;5068781;28;24762;-46
2022/08/07 11:46:59;;;;;;;1.20;1.10;;;;;;;;;;5068971;28;24510;-45
2022/08/07 11:49:38;;;;;;;1.10;1.10;;;;;;;;;;5069343;28;24451;-45
2022/08/07 11:52:22;;;;;;;1.27;1.17;;;;;;;;;;5069199;28;24456;-46
2022/08/07 11:54:50;;;;;;;1.90;1.20;;;;;;;;;;5068422;28;24458;-44
2022/08/07 11:57:34;;;;;;;1.45;1.08;;;;;;;;;;5069094;28;24456;-45
2022/08/07 12:00:09;;;;;;;1.00;1.00;;;;;;;;;;5068304;28;24482;-46
2022/08/07 12:02:49;;;;;;;1.38;1.10;;;;;;;;;;5069084;28;24398;-45
2022/08/07 12:05:38;;;;;;;1.30;1.20;;;;;;;;;;5068724;28;24383;-46
2022/08/07 12:08:05;;;;;;;2.00;1.20;;;;;;;;;;5068502;28;24387;-46
2022/08/07 12:10:37;;;;;;;1.42;1.10;;;;;;;;;;5068939;28;24387;-45
2022/08/07 12:13:04;;;;;;;1.58;1.48;;;;;;;;;;5068087;28;24967;-45
2022/08/07 12:15:31;;;;;;;1.20;1.20;;;;;;;;;;5068246;28;24952;-45
2022/08/07 12:18:15;;;;;;;1.30;1.20;;;;;;;;;;5068671;28;24636;-45
2022/08/07 12:20:45;;;;;;;1.67;1.30;;;;;;;;;;5068413;28;24553;-46
2022/08/07 12:23:15;;;;;;;1.40;1.20;;;;;;;;;;5068352;28;24762;-46
2022/08/07 12:25:52;;;;;;;1.85;1.23;;;;;;;;;;5067978;28;24387;-45
2022/08/07 12:28:21;;;;;;;2.88;1.58;;;;;;;;;;5087111;28;25347;-45
2022/08/07 12:30:49;;;;;;;2.67;1.20;;;;;;;;;;5088504;28;24753;-45
2022/08/07 12:33:17;;;;;;;1.40;1.10;;;;;;;;;;5088528;28;24422;-45
2022/08/07 12:35:43;;;;;;;0.90;0.90;;;;;;;;;;5087975;28;24428;-45
2022/08/07 12:38:10;;;;;;;1.10;1.00;;;;;;;;;;5088253;28;24512;-45
2022/08/07 12:40:36;;;;;;;1.70;1.20;;;;;;;;;;5088156;28;24407;-45
2022/08/07 12:43:04;;;;;;;2.25;1.00;;;;;;;;;;5087907;28;24737;-46
2022/08/07 12:45:36;;;;;;;2.80;1.20;;;;;;;;;;5088221;28;24389;-46
2022/08/07 12:48:06;;;;;;;1.25;1.15;;;;;;;;;;5087733;28;24908;-44
2022/08/07 12:50:37;;;;;;;1.00;1.00;;;;;;;;;;5088182;28;24505;-45
2022/08/07 12:53:27;;;;;;;0.90;0.90;;;;;;;;;;5087391;28;24475;-45
2022/08/07 12:55:59;;;;;;;1.20;1.10;;;;;;;;;;5087916;28;24428;-45
2022/08/07 12:58:27;;;;;;;1.23;1.13;;;;;;;;;;5088385;28;24398;-45
2022/08/07 13:01:08;;;;;;;1.20;0.90;;;;;;;;;;5087766;28;24393;-45
2022/08/07 13:03:51;;;;;;;0.90;0.90;;;;;;;;;;5087846;28;25219;-45
2022/08/07 13:06:25;;;;;;;2.20;1.05;;;;;;;;;;5087837;28;24445;-45
2022/08/07 13:09:06;;;;;;;0.90;0.90;;;;;;;;;;5088123;28;24421;-45
2022/08/07 13:11:46;;;;;;;1.23;1.02;;;;;;;;;;5087901;28;24947;-46
2022/08/07 13:14:20;;;;;;;1.20;1.10;;;;;;;;;;5087814;28;24441;-46
2022/08/07 13:16:59;;;;;;;1.43;1.00;;;;;;;;;;5087322;28;24473;-45
2022/08/07 13:19:29;;;;;;;1.30;1.20;;;;;;;;;;5087810;28;24421;-46
2022/08/07 13:21:58;;;;;;;1.10;1.00;;;;;;;;;;5087680;28;24406;-46
2022/08/07 13:24:33;;;;;;;1.60;1.10;;;;;;;;;;5087231;28;24402;-46
2022/08/07 13:27:10;;;;;;;1.80;0.93;;;;;;;;;;5086638;28;24735;-46
2022/08/07 13:29:38;;;;;;;1.75;1.02;;;;;;;;;;5087603;28;24454;-45
2022/08/07 13:32:04;;;;;;;1.80;1.10;;;;;;;;;;5087211;28;24783;-45
2022/08/07 13:34:35;;;;;;;1.10;1.10;;;;;;;;;;5087190;28;24418;-46
2022/08/07 13:37:15;;;;;;;3.00;1.20;;;;;;;;;;5086805;28;24884;-45
2022/08/07 13:39:53;;;;;;;1.33;1.20;;;;;;;;;;5086883;28;24444;-45
2022/08/07 13:42:21;;;;;;;1.48;1.30;;;;;;;;;;5087289;28;24414;-45
2022/08/07 13:44:48;;;;;;;1.30;1.20;;;;;;;;;;5087483;28;24410;-46
2022/08/07 13:47:14;;;;;;;1.10;1.10;;;;;;;;;;5087114;28;24445;-44
2022/08/07 13:49:44;;;;;;;2.40;1.20;;;;;;;;;;5087029;28;24417;-44
2022/08/07 13:52:10;;;;;;;1.27;1.10;;;;;;;;;;5087359;28;24390;-44
2022/08/07 13:54:39;;;;;;;1.30;1.20;;;;;;;;;;5087622;28;24818;-45
2022/08/07 13:57:11;;;;;;;1.30;1.20;;;;;;;;;;5086387;28;24382;-45
2022/08/07 13:59:38;;;;;;;1.08;1.00;;;;;;;;;;5087294;28;24406;-45
2022/08/07 14:02:08;;;;;;;1.10;1.10;;;;;;;;;;5086779;28;25349;-44
2022/08/07 14:04:43;;;;;;;0.90;0.90;;;;;;;;;;5087253;28;24402;-45
2022/08/07 14:07:08;;;;;;;1.25;1.00;;;;;;;;;;5086476;28;24371;-44
2022/08/07 14:09:38;;;;;;;1.00;1.00;;;;;;;;;;5086859;28;24404;-44
2022/08/07 14:12:05;;;;;;;1.08;1.08;;;;;;;;;;5086502;28;24402;-44
2022/08/07 14:14:38;;;;;;;1.60;1.50;;;;;;;;;;5086867;28;24418;-44
2022/08/07 14:17:03;;;;;;;1.50;1.30;;;;;;;;;;5086651;28;24387;-45
2022/08/07 14:19:36;;;;;;;1.00;1.00;;;;;;;;;;5086688;28;24900;-45
2022/08/07 14:22:04;;;;;;;1.00;0.90;;;;;;;;;;5086569;28;24424;-46
2022/08/07 14:24:34;;;;;;;1.80;1.10;;;;;;;;;;5086913;28;24406;-45
2022/08/07 14:27:01;;;;;;;1.23;1.10;;;;;;;;;;5086332;28;24406;-45
2022/08/07 14:29:30;;;;;;;1.30;1.03;;;;;;;;;;5087010;28;25273;-46
2022/08/07 14:31:57;;;;;;;1.30;1.10;;;;;;;;;;5086793;28;24452;-45
2022/08/07 14:34:24;;;;;;;2.40;0.90;;;;;;;;;;5086671;28;24488;-45
2022/08/07 14:36:49;;;;;;;1.00;0.90;;;;;;;;;;5086336;28;24513;-45
2022/08/07 14:39:15;;;;;;;1.20;1.10;;;;;;;;;;5090500;28;24510;-46
2022/08/07 14:41:41;;;;;;;1.10;1.00;;;;;;;;;;5090969;28;24469;-46
2022/08/07 14:44:08;;;;;;;1.30;1.20;;;;;;;;;;5090321;28;24489;-46
2022/08/07 14:46:34;;;;;;;1.17;1.15;;;;;;;;;;5090354;28;24393;-45
2022/08/07 14:49:00;;;;;;;1.10;1.00;;;;;;;;;;5090344;28;24505;-45
2022/08/07 14:51:26;;;;;;;1.20;1.10;;;;;;;;;;5090054;28;24620;-45
2022/08/07 14:53:52;;;;;;;1.90;1.13;;;;;;;;;;5090049;28;24509;-45
2022/08/07 14:56:18;;;;;;;1.15;1.00;;;;;;;;;;5088006;28;25106;-46
2022/08/07 14:58:47;;;;;;;1.00;1.00;;;;;;;;;;5090167;28;24384;-45